Time;durP1;ratioP1;P1;durP2;ratioP2;P2;SDS_P1;SDS_P2;PMS_P1;PMS_P2;Temp;Humidity;BMP_temperature;BMP_pressure;BME280_temperature;BME280_humidity;BME280_pressure;Samples;Min_cycle;Max_cycle;Signal;HPM_P1;HPM_P2
2022/08/13 00:00:54;;;;;;;2.35;1.77;;;;;;;;;;5117984;28;20272;-64
2022/08/13 00:03:22;;;;;;;4.47;1.90;;;;;;;;;;5118126;28;20257;-64
2022/08/13 00:06:11;;;;;;;2.97;1.98;;;;;;;;;;5117949;28;20694;-64
2022/08/13 00:08:55;;;;;;;4.13;1.90;;;;;;;;;;5117971;28;20231;-64
2022/08/13 00:14:31;;;;;;;3.78;1.88;;;;;;;;;;5118306;28;20258;-64
2022/08/13 00:17:04;;;;;;;2.83;1.88;;;;;;;;;;5118042;28;20271;-64
2022/08/13 00:19:35;;;;;;;2.75;2.30;;;;;;;;;;5118127;28;20236;-64
2022/08/13 00:22:04;;;;;;;3.30;2.13;;;;;;;;;;5117702;28;20275;-64
2022/08/13 00:24:52;;;;;;;3.13;2.22;;;;;;;;;;5109210;28;20227;-64
2022/08/13 00:27:22;;;;;;;2.42;2.08;;;;;;;;;;5098354;28;20216;-64
2022/08/13 00:29:54;;;;;;;3.55;2.25;;;;;;;;;;5101869;28;20208;-64
2022/08/13 00:32:29;;;;;;;2.17;1.98;;;;;;;;;;5101558;28;20223;-64
2022/08/13 00:35:00;;;;;;;2.63;2.38;;;;;;;;;;5101218;28;20226;-64
2022/08/13 00:37:29;;;;;;;4.32;2.53;;;;;;;;;;5114096;28;20214;-64
2022/08/13 00:40:17;;;;;;;4.57;2.80;;;;;;;;;;5121666;28;20212;-64
2022/08/13 00:43:02;;;;;;;3.83;2.60;;;;;;;;;;5121756;28;20217;-64
2022/08/13 00:45:33;;;;;;;3.75;2.50;;;;;;;;;;5121722;28;20202;-64
2022/08/13 00:50:50;;;;;;;3.37;2.80;;;;;;;;;;5121399;28;20233;-64
2022/08/13 00:53:20;;;;;;;4.43;3.00;;;;;;;;;;5121303;28;20262;-64
2022/08/13 00:55:52;;;;;;;3.03;2.60;;;;;;;;;;5121428;28;20226;-64
2022/08/13 00:58:21;;;;;;;2.40;2.23;;;;;;;;;;5121521;28;20240;-64
2022/08/13 01:00:54;;;;;;;3.33;2.10;;;;;;;;;;5121175;28;20204;-64
2022/08/13 01:03:22;;;;;;;2.50;2.20;;;;;;;;;;5121045;28;20303;-64
2022/08/13 01:06:10;;;;;;;1.70;1.60;;;;;;;;;;5121358;28;21049;-64
2022/08/13 01:08:43;;;;;;;2.63;1.57;;;;;;;;;;5121056;28;20239;-64
2022/08/13 01:11:22;;;;;;;2.40;1.57;;;;;;;;;;5120863;28;20620;-64
2022/08/13 01:13:51;;;;;;;2.37;1.53;;;;;;;;;;5121163;28;20224;-64
2022/08/13 01:16:20;;;;;;;2.50;1.80;;;;;;;;;;5120733;28;20703;-64
2022/08/13 01:18:51;;;;;;;1.37;1.33;;;;;;;;;;5121081;28;20215;-64
2022/08/13 01:21:20;;;;;;;1.87;1.53;;;;;;;;;;5120977;28;20235;-64
2022/08/13 01:23:51;;;;;;;1.53;1.43;;;;;;;;;;5120342;28;20231;-64
2022/08/13 01:26:32;;;;;;;2.80;1.92;;;;;;;;;;5108751;28;20210;-64
2022/08/13 01:29:06;;;;;;;1.60;1.50;;;;;;;;;;5120817;28;20229;-64
2022/08/13 01:31:41;;;;;;;1.85;1.23;;;;;;;;;;5120902;28;20205;-64
2022/08/13 01:34:11;;;;;;;2.95;1.63;;;;;;;;;;5120643;28;20230;-64
2022/08/13 01:36:52;;;;;;;2.10;1.40;;;;;;;;;;5120722;28;20236;-64
2022/08/13 01:39:24;;;;;;;5.15;1.50;;;;;;;;;;5107407;28;20206;-64
2022/08/13 01:42:03;;;;;;;1.80;1.38;;;;;;;;;;5120560;28;20212;-64
2022/08/13 01:44:33;;;;;;;3.55;1.60;;;;;;;;;;5120573;28;20231;-65
2022/08/13 01:53:01;;;;;;;1.58;1.33;;;;;;;;;;5120221;28;20281;-64
2022/08/13 01:55:37;;;;;;;1.92;1.48;;;;;;;;;;5120179;28;20242;-64
2022/08/13 01:58:29;;;;;;;2.87;1.63;;;;;;;;;;5120071;28;20297;-64
2022/08/13 02:01:02;;;;;;;2.77;1.63;;;;;;;;;;5120076;28;20253;-64
2022/08/13 02:03:36;;;;;;;1.77;1.50;;;;;;;;;;5120175;28;20312;-63
2022/08/13 02:06:09;;;;;;;2.77;1.63;;;;;;;;;;5119914;28;20210;-63
2022/08/13 02:08:57;;;;;;;1.37;1.30;;;;;;;;;;5119917;28;20205;-63
2022/08/13 02:11:27;;;;;;;1.87;1.50;;;;;;;;;;5119982;28;20269;-63
2022/08/13 02:13:57;;;;;;;1.57;1.47;;;;;;;;;;5119846;28;20283;-63
2022/08/13 02:16:28;;;;;;;1.50;1.40;;;;;;;;;;5119789;28;20259;-63
2022/08/13 02:18:59;;;;;;;3.67;1.70;;;;;;;;;;5119659;28;20667;-63
2022/08/13 02:21:30;;;;;;;1.60;1.50;;;;;;;;;;5119969;28;20208;-63
2022/08/13 02:24:08;;;;;;;2.97;1.37;;;;;;;;;;5117693;28;20263;-63
2022/08/13 02:26:38;;;;;;;1.73;1.63;;;;;;;;;;5099409;28;20203;-63
2022/08/13 02:29:09;;;;;;;1.30;1.20;;;;;;;;;;5099007;28;20209;-63
2022/08/13 02:31:37;;;;;;;4.03;1.70;;;;;;;;;;5099332;28;20219;-63
2022/08/13 02:34:26;;;;;;;1.60;1.50;;;;;;;;;;5098894;28;20230;-63
2022/08/13 02:36:58;;;;;;;5.87;1.60;;;;;;;;;;5107231;28;20690;-63
2022/08/13 02:39:48;;;;;;;1.73;1.30;;;;;;;;;;5119867;28;20215;-63
2022/08/13 02:42:19;;;;;;;1.40;1.30;;;;;;;;;;5119072;28;20663;-63
2022/08/13 02:44:48;;;;;;;3.37;1.50;;;;;;;;;;5119189;28;20638;-63
2022/08/13 02:47:18;;;;;;;1.20;1.20;;;;;;;;;;5119381;28;20205;-63
2022/08/13 02:50:00;;;;;;;4.50;1.77;;;;;;;;;;5118564;28;20296;-63
2022/08/13 02:52:30;;;;;;;1.73;1.60;;;;;;;;;;5119086;28;20209;-63
2022/08/13 02:54:58;;;;;;;1.60;1.50;;;;;;;;;;5118883;28;20253;-64
2022/08/13 02:57:27;;;;;;;2.87;1.40;;;;;;;;;;5119073;28;20262;-64
2022/08/13 03:00:00;;;;;;;2.67;1.40;;;;;;;;;;5119153;28;20232;-63
2022/08/13 03:02:37;;;;;;;2.15;1.50;;;;;;;;;;5119092;28;20208;-63
2022/08/13 03:05:08;;;;;;;5.03;1.40;;;;;;;;;;5118939;28;20224;-63
2022/08/13 03:07:41;;;;;;;2.80;1.50;;;;;;;;;;5118593;28;20566;-63
2022/08/13 03:10:22;;;;;;;3.33;1.40;;;;;;;;;;5118928;28;20237;-63
2022/08/13 03:13:05;;;;;;;3.30;1.83;;;;;;;;;;5118677;28;20211;-63
2022/08/13 03:15:35;;;;;;;11.80;1.90;;;;;;;;;;5118573;28;20259;-63
2022/08/13 03:18:22;;;;;;;3.50;1.70;;;;;;;;;;5106596;28;20227;-64
2022/08/13 03:20:53;;;;;;;2.67;1.57;;;;;;;;;;5118793;28;20202;-63
2022/08/13 03:23:23;;;;;;;1.40;1.27;;;;;;;;;;5118201;28;20701;-63
2022/08/13 03:25:52;;;;;;;4.07;2.00;;;;;;;;;;5103054;28;20284;-63
2022/08/13 03:28:23;;;;;;;1.23;1.20;;;;;;;;;;5118145;28;20202;-63
2022/08/13 03:30:52;;;;;;;2.10;1.33;;;;;;;;;;5118844;28;20206;-63
2022/08/13 03:33:22;;;;;;;2.77;1.50;;;;;;;;;;5118513;28;20255;-63
2022/08/13 03:35:51;;;;;;;1.73;1.60;;;;;;;;;;5118704;28;20208;-63
2022/08/13 03:38:22;;;;;;;1.70;1.30;;;;;;;;;;5113912;28;20260;-63
2022/08/13 03:41:01;;;;;;;7.70;1.40;;;;;;;;;;5118080;28;20673;-63
2022/08/13 03:43:32;;;;;;;2.70;1.30;;;;;;;;;;5118119;28;20230;-63
2022/08/13 03:46:08;;;;;;;2.80;1.47;;;;;;;;;;5117948;28;20201;-63
2022/08/13 03:48:39;;;;;;;1.50;1.40;;;;;;;;;;5118299;28;20560;-63
2022/08/13 03:51:08;;;;;;;3.07;1.60;;;;;;;;;;5117826;28;20240;-63
2022/08/13 03:53:37;;;;;;;1.87;1.60;;;;;;;;;;5117793;28;20270;-63
2022/08/13 03:56:12;;;;;;;1.80;1.70;;;;;;;;;;5116376;28;20207;-63
2022/08/13 03:58:46;;;;;;;1.63;1.53;;;;;;;;;;5116460;28;20249;-63
2022/08/13 04:01:17;;;;;;;2.50;1.67;;;;;;;;;;5116346;28;20212;-63
2022/08/13 04:03:46;;;;;;;3.07;2.83;;;;;;;;;;5119524;28;20323;-64
2022/08/13 04:06:17;;;;;;;2.57;1.50;;;;;;;;;;5120495;28;20208;-63
2022/08/13 04:08:52;;;;;;;2.87;1.87;;;;;;;;;;5120406;28;20201;-63
2022/08/13 04:11:22;;;;;;;2.53;1.67;;;;;;;;;;5121975;28;20208;-63
2022/08/13 04:13:56;;;;;;;1.60;1.50;;;;;;;;;;5122007;28;20232;-63
2022/08/13 04:16:45;;;;;;;2.00;1.53;;;;;;;;;;5121841;28;20294;-63
2022/08/13 04:19:14;;;;;;;1.80;1.67;;;;;;;;;;5122247;28;20236;-63
2022/08/13 04:21:46;;;;;;;1.40;1.30;;;;;;;;;;5122117;28;20247;-63
2022/08/13 04:24:17;;;;;;;2.97;1.40;;;;;;;;;;5118623;28;20268;-63
2022/08/13 04:26:48;;;;;;;4.07;1.80;;;;;;;;;;5101630;28;20212;-63
2022/08/13 04:29:18;;;;;;;2.37;2.17;;;;;;;;;;5101651;28;20212;-63
2022/08/13 04:31:48;;;;;;;2.30;1.67;;;;;;;;;;5101668;28;20219;-63
2022/08/13 04:34:19;;;;;;;1.60;1.50;;;;;;;;;;5101614;28;20232;-63
2022/08/13 04:37:08;;;;;;;2.80;1.50;;;;;;;;;;5111021;28;20211;-63
2022/08/13 04:39:48;;;;;;;1.60;1.50;;;;;;;;;;5121602;28;20293;-63
2022/08/13 04:42:49;;;;;;;3.47;1.53;;;;;;;;;;5121649;28;20214;-63
2022/08/13 04:45:19;;;;;;;1.70;1.60;;;;;;;;;;5121501;28;20271;-63
2022/08/13 04:47:52;;;;;;;1.53;1.43;;;;;;;;;;5121810;28;20204;-63
2022/08/13 04:50:21;;;;;;;2.33;1.60;;;;;;;;;;5121205;28;20243;-63
2022/08/13 04:52:54;;;;;;;3.23;1.60;;;;;;;;;;5121093;28;20238;-63
2022/08/13 04:55:23;;;;;;;2.20;1.50;;;;;;;;;;5121447;28;20241;-63
2022/08/13 04:57:51;;;;;;;1.67;1.57;;;;;;;;;;5121348;28;20601;-63
2022/08/13 05:00:32;;;;;;;4.17;1.80;;;;;;;;;;5121482;28;20212;-63
2022/08/13 05:03:10;;;;;;;4.20;1.67;;;;;;;;;;5121335;28;20205;-63
2022/08/13 05:05:39;;;;;;;3.30;1.40;;;;;;;;;;5121611;28;20207;-63
2022/08/13 05:08:10;;;;;;;3.13;1.53;;;;;;;;;;5121091;28;20228;-63
2022/08/13 05:10:39;;;;;;;5.23;1.60;;;;;;;;;;5117816;28;20205;-63
2022/08/13 05:13:19;;;;;;;5.13;1.80;;;;;;;;;;5120460;28;20222;-63
2022/08/13 05:15:49;;;;;;;1.90;1.70;;;;;;;;;;5120904;28;20238;-63
2022/08/13 05:18:17;;;;;;;4.43;2.17;;;;;;;;;;5120590;28;20768;-63
2022/08/13 05:20:55;;;;;;;2.73;1.80;;;;;;;;;;5121003;28;20231;-63
2022/08/13 05:23:24;;;;;;;1.50;1.40;;;;;;;;;;5120232;28;20222;-63
2022/08/13 05:26:12;;;;;;;2.03;1.70;;;;;;;;;;5119877;28;20198;-63
2022/08/13 05:29:04;;;;;;;6.93;2.60;;;;;;;;;;5120471;28;20202;-63
2022/08/13 05:31:35;;;;;;;2.33;1.30;;;;;;;;;;5120680;28;20199;-63
2022/08/13 05:34:23;;;;;;;1.70;1.60;;;;;;;;;;5107169;28;20230;-63
2022/08/13 05:36:52;;;;;;;1.60;1.50;;;;;;;;;;5119626;28;20199;-63
2022/08/13 05:39:41;;;;;;;2.43;1.70;;;;;;;;;;5100025;28;20233;-63
2022/08/13 05:42:16;;;;;;;2.87;1.40;;;;;;;;;;5099883;28;20211;-63
2022/08/13 05:44:47;;;;;;;1.57;1.50;;;;;;;;;;5100193;28;20249;-63
2022/08/13 05:47:17;;;;;;;3.73;1.70;;;;;;;;;;5099897;28;20223;-63
2022/08/13 05:49:52;;;;;;;1.80;1.70;;;;;;;;;;5099952;28;20238;-63
2022/08/13 05:52:26;;;;;;;1.43;1.33;;;;;;;;;;5099861;28;20207;-63
2022/08/13 05:55:11;;;;;;;1.50;1.40;;;;;;;;;;5099685;28;20254;-63
2022/08/13 05:57:59;;;;;;;2.70;1.40;;;;;;;;;;5099558;28;20769;-63
2022/08/13 06:03:27;;;;;;;1.40;1.30;;;;;;;;;;5099491;28;20696;-63
2022/08/13 06:06:16;;;;;;;2.93;1.60;;;;;;;;;;5099676;28;20209;-63
2022/08/13 06:08:56;;;;;;;1.70;1.47;;;;;;;;;;5099320;28;20286;-63
2022/08/13 06:11:26;;;;;;;4.30;1.43;;;;;;;;;;5099745;28;20242;-63
2022/08/13 06:14:20;;;;;;;2.03;1.40;;;;;;;;;;5099264;28;20246;-63
2022/08/13 06:16:50;;;;;;;1.63;1.53;;;;;;;;;;5099511;28;20199;-63
2022/08/13 06:19:25;;;;;;;3.33;1.60;;;;;;;;;;5116532;28;20232;-63
2022/08/13 06:22:00;;;;;;;3.57;1.50;;;;;;;;;;5119442;27;20572;-63
2022/08/13 06:24:29;;;;;;;2.93;1.57;;;;;;;;;;5114056;28;20776;-63
2022/08/13 06:26:59;;;;;;;1.97;1.77;;;;;;;;;;5098724;28;20214;-63
2022/08/13 06:29:28;;;;;;;1.43;1.30;;;;;;;;;;5099307;28;20250;-63
2022/08/13 06:32:03;;;;;;;6.07;1.80;;;;;;;;;;5099234;28;20214;-63
2022/08/13 06:34:53;;;;;;;3.00;1.80;;;;;;;;;;5098899;28;20682;-63
2022/08/13 06:37:22;;;;;;;2.87;1.67;;;;;;;;;;5110865;28;20232;-63
2022/08/13 06:39:51;;;;;;;1.50;1.40;;;;;;;;;;5119269;28;20227;-63
2022/08/13 06:42:28;;;;;;;2.27;1.63;;;;;;;;;;5119346;28;20207;-63
2022/08/13 06:44:58;;;;;;;1.47;1.30;;;;;;;;;;5119037;28;20246;-63
2022/08/13 06:47:29;;;;;;;1.50;1.40;;;;;;;;;;5119181;28;20208;-63
2022/08/13 06:50:11;;;;;;;2.10;1.40;;;;;;;;;;5118985;28;20241;-63
2022/08/13 06:52:42;;;;;;;1.93;1.73;;;;;;;;;;5119054;28;20232;-63
2022/08/13 06:55:30;;;;;;;2.83;1.63;;;;;;;;;;5119087;28;20210;-63
2022/08/13 06:58:22;;;;;;;3.43;1.50;;;;;;;;;;5119033;28;20205;-63
2022/08/13 07:00:53;;;;;;;2.47;1.63;;;;;;;;;;5119199;28;20258;-63
2022/08/13 07:03:25;;;;;;;3.03;1.40;;;;;;;;;;5119003;28;20232;-63
2022/08/13 07:06:00;;;;;;;3.10;1.50;;;;;;;;;;5119031;28;20289;-63
2022/08/13 07:08:30;;;;;;;1.67;1.57;;;;;;;;;;5118760;28;20196;-63
2022/08/13 07:13:52;;;;;;;1.87;1.57;;;;;;;;;;5118878;28;20227;-63
2022/08/13 07:16:22;;;;;;;3.73;1.50;;;;;;;;;;5118458;28;20589;-63
2022/08/13 07:18:54;;;;;;;3.77;1.80;;;;;;;;;;5118951;28;20220;-63
2022/08/13 07:21:24;;;;;;;1.83;1.37;;;;;;;;;;5118780;27;20216;-63
2022/08/13 07:24:08;;;;;;;4.70;3.77;;;;;;;;;;5115911;27;20279;-63
2022/08/13 07:26:59;;;;;;;1.70;1.60;;;;;;;;;;5096527;28;20198;-63
2022/08/13 07:29:27;;;;;;;5.33;1.50;;;;;;;;;;5110920;28;20215;-62
2022/08/13 07:31:55;;;;;;;2.83;1.67;;;;;;;;;;5118757;28;20214;-63
2022/08/13 07:34:32;;;;;;;2.37;1.87;;;;;;;;;;5118427;28;20224;-63
2022/08/13 07:37:03;;;;;;;4.93;1.60;;;;;;;;;;5117727;28;20197;-63
2022/08/13 07:39:31;;;;;;;3.27;1.50;;;;;;;;;;5101241;28;20286;-63
2022/08/13 07:42:19;;;;;;;6.07;1.57;;;;;;;;;;5098196;28;20219;-63
2022/08/13 07:44:58;;;;;;;4.57;1.70;;;;;;;;;;5097397;28;20314;-63
2022/08/13 07:47:50;;;;;;;2.60;1.80;;;;;;;;;;5097030;28;20300;-63
2022/08/13 07:50:38;;;;;;;1.80;1.63;;;;;;;;;;5097404;28;20234;-64
2022/08/13 07:53:10;;;;;;;5.80;1.50;;;;;;;;;;5097580;28;20225;-64
2022/08/13 07:55:43;;;;;;;2.10;1.43;;;;;;;;;;5097728;28;20250;-64
2022/08/13 07:58:33;;;;;;;3.37;1.57;;;;;;;;;;5096920;28;20211;-64
2022/08/13 08:01:02;;;;;;;3.53;1.70;;;;;;;;;;5097856;28;20210;-64
2022/08/13 08:03:32;;;;;;;2.67;1.80;;;;;;;;;;5097563;28;20285;-64
2022/08/13 08:06:19;;;;;;;5.78;1.95;;;;;;;;;;5097808;28;20721;-63
2022/08/13 08:08:58;;;;;;;1.52;1.42;;;;;;;;;;5097352;28;20274;-64
2022/08/13 08:14:21;;;;;;;1.50;1.40;;;;;;;;;;5106993;28;20235;-64
2022/08/13 08:16:59;;;;;;;3.30;1.88;;;;;;;;;;5118110;28;20204;-64
2022/08/13 08:19:47;;;;;;;4.00;1.90;;;;;;;;;;5118033;28;20228;-64
2022/08/13 08:22:35;;;;;;;1.83;1.70;;;;;;;;;;5117541;28;20308;-64
2022/08/13 08:25:07;;;;;;;3.30;1.80;;;;;;;;;;5108078;28;20308;-64
2022/08/13 08:27:48;;;;;;;3.97;1.92;;;;;;;;;;5117815;28;20208;-64
2022/08/13 08:30:37;;;;;;;2.83;1.92;;;;;;;;;;5117720;28;20288;-64
2022/08/13 08:33:19;;;;;;;3.78;1.50;;;;;;;;;;5117841;28;20235;-64
2022/08/13 08:36:07;;;;;;;4.30;1.52;;;;;;;;;;5118237;28;20207;-64
2022/08/13 08:44:32;;;;;;;6.63;1.80;;;;;;;;;;5097494;28;20233;-65
2022/08/13 08:47:01;;;;;;;1.98;1.80;;;;;;;;;;5097171;28;20295;-64
2022/08/13 08:49:36;;;;;;;1.83;1.67;;;;;;;;;;5099906;28;20212;-63
2022/08/13 08:52:11;;;;;;;3.03;1.92;;;;;;;;;;5101054;28;20210;-63
2022/08/13 08:54:45;;;;;;;4.00;1.60;;;;;;;;;;5100835;28;20642;-63
2022/08/13 08:57:17;;;;;;;3.85;1.42;;;;;;;;;;5101105;28;20294;-65
2022/08/13 08:59:46;;;;;;;3.13;1.80;;;;;;;;;;5100736;28;20258;-64
2022/08/13 09:02:23;;;;;;;3.00;2.00;;;;;;;;;;5101198;28;20226;-64
2022/08/13 09:04:54;;;;;;;5.88;1.92;;;;;;;;;;5100882;28;20278;-63
2022/08/13 09:07:36;;;;;;;3.28;1.73;;;;;;;;;;5100661;28;20212;-63
2022/08/13 09:10:05;;;;;;;3.13;1.55;;;;;;;;;;5108168;28;20203;-63
2022/08/13 09:12:40;;;;;;;4.47;1.67;;;;;;;;;;5121120;28;20218;-63
2022/08/13 09:15:10;;;;;;;4.18;1.80;;;;;;;;;;5121228;28;20234;-63
2022/08/13 09:17:38;;;;;;;2.45;1.80;;;;;;;;;;5120788;28;20679;-64
2022/08/13 09:20:12;;;;;;;1.85;1.25;;;;;;;;;;5121101;28;20238;-63
2022/08/13 09:22:41;;;;;;;1.85;1.63;;;;;;;;;;5120564;28;20297;-63
2022/08/13 09:25:23;;;;;;;3.40;1.70;;;;;;;;;;5108041;28;20207;-64
2022/08/13 09:27:52;;;;;;;3.22;1.50;;;;;;;;;;5107327;28;20213;-63
2022/08/13 09:30:40;;;;;;;5.78;1.63;;;;;;;;;;5120625;28;20252;-63
2022/08/13 09:33:12;;;;;;;3.53;1.65;;;;;;;;;;5120804;28;20225;-63
2022/08/13 09:36:00;;;;;;;2.00;1.80;;;;;;;;;;5120353;28;20739;-63
2022/08/13 09:38:28;;;;;;;3.30;1.40;;;;;;;;;;5105581;28;20237;-63
2022/08/13 09:41:03;;;;;;;1.58;1.42;;;;;;;;;;5099828;28;20314;-63
2022/08/13 09:43:47;;;;;;;2.50;1.52;;;;;;;;;;5099787;28;20235;-63
2022/08/13 09:46:23;;;;;;;3.33;1.90;;;;;;;;;;5099899;28;20575;-63
2022/08/13 09:48:57;;;;;;;1.98;1.60;;;;;;;;;;5100257;28;20204;-63
2022/08/13 09:51:34;;;;;;;1.55;1.45;;;;;;;;;;5099586;28;20227;-63
2022/08/13 09:54:23;;;;;;;2.15;1.48;;;;;;;;;;5099880;28;20314;-64
2022/08/13 09:56:58;;;;;;;5.72;1.42;;;;;;;;;;5099639;28;20218;-63
2022/08/13 09:59:29;;;;;;;2.72;1.70;;;;;;;;;;5099901;28;20204;-63
2022/08/13 10:02:05;;;;;;;4.25;1.60;;;;;;;;;;5099768;28;20204;-63
2022/08/13 10:04:36;;;;;;;2.35;1.40;;;;;;;;;;5099681;28;20267;-63
2022/08/13 10:07:08;;;;;;;1.60;1.50;;;;;;;;;;5099651;28;20208;-63
2022/08/13 10:09:47;;;;;;;1.50;1.40;;;;;;;;;;5099383;28;20210;-63
2022/08/13 10:12:34;;;;;;;2.42;1.27;;;;;;;;;;5099342;28;20211;-64
2022/08/13 10:15:04;;;;;;;1.60;1.50;;;;;;;;;;5099432;28;20278;-64
2022/08/13 10:17:43;;;;;;;1.50;1.40;;;;;;;;;;5115651;28;20614;-63
2022/08/13 10:20:17;;;;;;;1.83;1.52;;;;;;;;;;5119673;28;20224;-64
2022/08/13 10:22:47;;;;;;;6.50;1.73;;;;;;;;;;5119221;28;20563;-64
2022/08/13 10:25:15;;;;;;;5.43;1.75;;;;;;;;;;5107815;28;20216;-64
2022/08/13 10:27:45;;;;;;;4.00;1.15;;;;;;;;;;5099253;28;20206;-64
2022/08/13 10:30:18;;;;;;;2.63;1.42;;;;;;;;;;5099279;28;20205;-63
2022/08/13 10:33:08;;;;;;;1.50;1.40;;;;;;;;;;5098854;28;20695;-63
2022/08/13 10:35:37;;;;;;;2.20;1.38;;;;;;;;;;5099143;28;20240;-64
2022/08/13 10:38:14;;;;;;;2.22;1.40;;;;;;;;;;5117478;28;20262;-64
2022/08/13 10:40:42;;;;;;;3.13;1.50;;;;;;;;;;5119183;28;20256;-64
2022/08/13 10:43:14;;;;;;;1.92;1.52;;;;;;;;;;5119097;28;20312;-64
2022/08/13 10:45:56;;;;;;;1.50;1.40;;;;;;;;;;5119231;28;20208;-63
2022/08/13 10:48:39;;;;;;;1.88;1.77;;;;;;;;;;5119352;28;20211;-64
2022/08/13 10:51:07;;;;;;;2.25;1.60;;;;;;;;;;5118915;27;20267;-63
2022/08/13 10:56:24;;;;;;;2.60;1.80;;;;;;;;;;5119131;28;20216;-63
2022/08/13 10:58:54;;;;;;;5.72;1.90;;;;;;;;;;5118910;28;20208;-63
2022/08/13 11:01:26;;;;;;;2.00;1.80;;;;;;;;;;5118652;28;20790;-64
2022/08/13 11:03:57;;;;;;;2.75;1.60;;;;;;;;;;5118800;28;20695;-63
2022/08/13 11:06:33;;;;;;;2.80;1.63;;;;;;;;;;5118629;28;20204;-63
2022/08/13 11:09:04;;;;;;;2.00;1.40;;;;;;;;;;5118896;28;20212;-63
2022/08/13 11:11:52;;;;;;;1.63;1.23;;;;;;;;;;5118296;28;20311;-64
2022/08/13 11:14:22;;;;;;;2.15;1.40;;;;;;;;;;5118454;28;20655;-64
2022/08/13 11:16:59;;;;;;;1.90;1.70;;;;;;;;;;5118663;28;20201;-63
2022/08/13 11:19:34;;;;;;;2.30;2.05;;;;;;;;;;5118722;28;20215;-63
2022/08/13 11:22:19;;;;;;;2.10;1.50;;;;;;;;;;5118003;28;20229;-63
2022/08/13 11:24:55;;;;;;;2.42;1.70;;;;;;;;;;5109571;28;20663;-63
2022/08/13 11:27:23;;;;;;;3.42;1.58;;;;;;;;;;5098102;28;20215;-63
2022/08/13 11:29:59;;;;;;;2.17;1.30;;;;;;;;;;5097949;28;20239;-64
2022/08/13 11:32:29;;;;;;;1.55;1.42;;;;;;;;;;5098035;28;20641;-64
2022/08/13 11:34:57;;;;;;;1.40;1.30;;;;;;;;;;5098044;28;20258;-64
2022/08/13 11:37:25;;;;;;;1.27;1.20;;;;;;;;;;5110368;28;20211;-64
2022/08/13 11:40:07;;;;;;;3.35;1.60;;;;;;;;;;5118505;28;20201;-64
2022/08/13 11:42:55;;;;;;;1.38;1.35;;;;;;;;;;5118098;27;20208;-64
2022/08/13 11:45:37;;;;;;;1.50;1.40;;;;;;;;;;5118163;28;20212;-64
2022/08/13 11:48:12;;;;;;;1.48;1.38;;;;;;;;;;5118094;28;20300;-64
2022/08/13 11:50:56;;;;;;;5.00;1.42;;;;;;;;;;5118383;28;20228;-64
2022/08/13 11:53:26;;;;;;;2.35;1.40;;;;;;;;;;5117704;28;20224;-64
2022/08/13 11:55:56;;;;;;;1.35;1.33;;;;;;;;;;5118334;28;20294;-64
2022/08/13 11:58:29;;;;;;;1.27;1.10;;;;;;;;;;5118343;28;20211;-64
2022/08/13 12:01:18;;;;;;;1.98;1.20;;;;;;;;;;5117976;28;20307;-64
2022/08/13 12:03:54;;;;;;;2.38;1.60;;;;;;;;;;5118235;28;20231;-64
2022/08/13 12:06:42;;;;;;;1.75;1.48;;;;;;;;;;5117632;28;20235;-64
2022/08/13 12:09:17;;;;;;;3.85;1.58;;;;;;;;;;5118055;28;20629;-64
2022/08/13 12:12:05;;;;;;;1.65;1.30;;;;;;;;;;5117893;28;20685;-64
2022/08/13 12:14:38;;;;;;;1.63;1.40;;;;;;;;;;5117837;28;20579;-64
2022/08/13 12:17:06;;;;;;;1.52;1.30;;;;;;;;;;5117840;28;20205;-64
2022/08/13 12:19:36;;;;;;;2.05;1.30;;;;;;;;;;5118103;28;20211;-64
2022/08/13 12:22:05;;;;;;;1.92;1.83;;;;;;;;;;5117504;28;20252;-64
2022/08/13 12:24:34;;;;;;;1.48;1.38;;;;;;;;;;5114441;28;20251;-64
2022/08/13 12:27:03;;;;;;;2.38;1.52;;;;;;;;;;5101298;28;20220;-64
2022/08/13 12:29:31;;;;;;;1.33;1.25;;;;;;;;;;5101593;28;20208;-64
2022/08/13 12:32:13;;;;;;;1.38;1.23;;;;;;;;;;5101041;28;20656;-65
2022/08/13 12:34:43;;;;;;;2.35;1.52;;;;;;;;;;5101530;28;20225;-64
2022/08/13 12:37:21;;;;;;;1.70;1.50;;;;;;;;;;5112697;28;20205;-63
2022/08/13 12:39:51;;;;;;;1.73;1.60;;;;;;;;;;5121720;28;20575;-64
2022/08/13 12:42:21;;;;;;;1.52;1.40;;;;;;;;;;5121514;28;20231;-64
2022/08/13 12:44:54;;;;;;;1.63;1.52;;;;;;;;;;5121803;28;20231;-64
2022/08/13 12:47:41;;;;;;;2.40;1.30;;;;;;;;;;5121530;28;20213;-64
2022/08/13 12:50:19;;;;;;;1.88;1.42;;;;;;;;;;5121353;28;20240;-64
2022/08/13 12:52:48;;;;;;;1.80;1.58;;;;;;;;;;5121044;28;20288;-64
2022/08/13 12:55:17;;;;;;;3.05;1.70;;;;;;;;;;5121189;28;20592;-63
2022/08/13 12:58:00;;;;;;;1.42;1.33;;;;;;;;;;5121578;28;20208;-64
2022/08/13 13:00:33;;;;;;;1.73;1.50;;;;;;;;;;5121498;27;20211;-64
2022/08/13 13:03:02;;;;;;;1.88;1.55;;;;;;;;;;5121251;28;20236;-62
2022/08/13 13:05:41;;;;;;;1.65;1.50;;;;;;;;;;5121212;28;20212;-63
2022/08/13 13:08:16;;;;;;;1.70;1.60;;;;;;;;;;5121234;28;20211;-64
2022/08/13 13:11:02;;;;;;;1.40;1.30;;;;;;;;;;5121223;28;20215;-63
2022/08/13 13:13:39;;;;;;;2.35;1.27;;;;;;;;;;5121257;28;20224;-64
2022/08/13 13:16:23;;;;;;;1.63;1.48;;;;;;;;;;5121145;28;20236;-64
2022/08/13 13:19:05;;;;;;;2.80;1.40;;;;;;;;;;5121118;28;20215;-64
2022/08/13 13:21:44;;;;;;;7.47;1.40;;;;;;;;;;5120867;28;20224;-62
2022/08/13 13:24:13;;;;;;;3.45;1.42;;;;;;;;;;5117678;28;20229;-64
2022/08/13 13:26:46;;;;;;;9.23;1.65;;;;;;;;;;5100264;28;20699;-64
2022/08/13 13:29:29;;;;;;;1.52;1.40;;;;;;;;;;5100656;28;20258;-64
2022/08/13 13:32:03;;;;;;;4.68;1.50;;;;;;;;;;5100291;28;20571;-64
2022/08/13 13:34:51;;;;;;;2.45;1.30;;;;;;;;;;5099659;28;20221;-64
2022/08/13 13:37:24;;;;;;;5.55;1.20;;;;;;;;;;5112361;28;20212;-64
2022/08/13 13:39:56;;;;;;;3.03;1.45;;;;;;;;;;5120755;28;20235;-62
2022/08/13 13:42:24;;;;;;;3.72;1.52;;;;;;;;;;5120323;28;20232;-64
2022/08/13 13:44:56;;;;;;;2.15;1.40;;;;;;;;;;5120248;28;20280;-64
2022/08/13 13:47:24;;;;;;;3.67;1.40;;;;;;;;;;5120390;28;20663;-65
2022/08/13 13:49:53;;;;;;;1.58;1.30;;;;;;;;;;5120040;28;20595;-64
2022/08/13 13:52:21;;;;;;;1.45;1.25;;;;;;;;;;5120287;28;20232;-64
2022/08/13 13:54:53;;;;;;;3.03;1.35;;;;;;;;;;5120462;28;20260;-64
2022/08/13 13:57:24;;;;;;;1.40;1.30;;;;;;;;;;5120342;28;20214;-64
2022/08/13 14:00:04;;;;;;;1.42;1.33;;;;;;;;;;5120046;28;20734;-64
2022/08/13 14:02:34;;;;;;;1.52;1.45;;;;;;;;;;5120072;28;20259;-64
2022/08/13 14:05:09;;;;;;;1.27;1.23;;;;;;;;;;5119864;28;20761;-64
2022/08/13 14:07:51;;;;;;;1.50;1.40;;;;;;;;;;5119912;28;20205;-64
2022/08/13 14:10:21;;;;;;;2.97;1.23;;;;;;;;;;5120289;28;20243;-64
2022/08/13 14:12:49;;;;;;;1.30;1.20;;;;;;;;;;5119864;28;20675;-64
2022/08/13 14:15:38;;;;;;;2.85;1.60;;;;;;;;;;5119975;28;20205;-64
2022/08/13 14:18:08;;;;;;;2.03;1.40;;;;;;;;;;5119706;27;20227;-64
2022/08/13 14:20:54;;;;;;;1.70;1.45;;;;;;;;;;5119595;28;20712;-64
2022/08/13 14:23:24;;;;;;;4.28;1.50;;;;;;;;;;5119105;28;20228;-64
2022/08/13 14:26:10;;;;;;;1.80;1.30;;;;;;;;;;5100221;28;20205;-64
2022/08/13 14:28:43;;;;;;;2.85;1.20;;;;;;;;;;5099360;28;20205;-64
2022/08/13 14:31:14;;;;;;;1.42;1.33;;;;;;;;;;5099103;28;20212;-64
2022/08/13 14:33:43;;;;;;;3.40;1.27;;;;;;;;;;5099373;28;20312;-64
2022/08/13 14:36:29;;;;;;;2.08;1.48;;;;;;;;;;5103530;28;20252;-64
2022/08/13 14:38:59;;;;;;;4.38;1.33;;;;;;;;;;5119661;28;20204;-64
2022/08/13 14:41:31;;;;;;;2.25;1.17;;;;;;;;;;5119204;28;20699;-64
2022/08/13 14:44:04;;;;;;;1.95;1.17;;;;;;;;;;5119028;27;20232;-64
2022/08/13 14:46:32;;;;;;;1.45;1.35;;;;;;;;;;5118322;28;20214;-64
2022/08/13 14:49:01;;;;;;;4.00;1.35;;;;;;;;;;5119498;28;20247;-64
2022/08/13 14:51:31;;;;;;;1.40;1.30;;;;;;;;;;5118674;28;20266;-63
2022/08/13 14:54:19;;;;;;;1.48;1.38;;;;;;;;;;5119297;28;20303;-64
2022/08/13 14:56:48;;;;;;;3.13;1.33;;;;;;;;;;5118974;28;20232;-64
2022/08/13 14:59:17;;;;;;;2.42;1.30;;;;;;;;;;5119240;28;20292;-64
2022/08/13 15:01:48;;;;;;;1.30;1.20;;;;;;;;;;5118823;28;20227;-64
2022/08/13 15:04:19;;;;;;;2.60;1.20;;;;;;;;;;5118961;28;20260;-64
2022/08/13 15:06:55;;;;;;;1.67;1.20;;;;;;;;;;5118567;27;20246;-64
2022/08/13 15:09:23;;;;;;;2.88;1.35;;;;;;;;;;5118989;28;20209;-64
2022/08/13 15:12:09;;;;;;;1.85;1.10;;;;;;;;;;5118940;28;20216;-64
2022/08/13 15:14:46;;;;;;;1.38;1.35;;;;;;;;;;5118617;28;20691;-62
2022/08/13 15:17:19;;;;;;;3.60;1.23;;;;;;;;;;5118793;28;20201;-64
2022/08/13 15:19:47;;;;;;;2.30;1.20;;;;;;;;;;5118830;28;20212;-64
2022/08/13 15:22:19;;;;;;;2.55;1.13;;;;;;;;;;5118597;28;20204;-64
2022/08/13 15:24:52;;;;;;;1.17;1.10;;;;;;;;;;5109829;28;20226;-64
2022/08/13 15:27:30;;;;;;;1.85;1.33;;;;;;;;;;5098408;28;20239;-64
2022/08/13 15:30:03;;;;;;;1.63;1.35;;;;;;;;;;5098130;28;20209;-64
2022/08/13 15:32:31;;;;;;;1.52;1.42;;;;;;;;;;5098174;28;20201;-64
2022/08/13 15:35:01;;;;;;;1.42;1.33;;;;;;;;;;5098358;28;20225;-64
2022/08/13 15:37:30;;;;;;;1.48;1.30;;;;;;;;;;5111135;28;20205;-63
2022/08/13 15:40:19;;;;;;;1.33;1.13;;;;;;;;;;5118721;28;20201;-64
2022/08/13 15:42:58;;;;;;;4.38;1.25;;;;;;;;;;5118403;27;20220;-64
2022/08/13 15:45:32;;;;;;;3.38;1.20;;;;;;;;;;5118580;28;20212;-62
2022/08/13 15:48:06;;;;;;;1.40;1.30;;;;;;;;;;5118431;28;20239;-62
2022/08/13 15:50:51;;;;;;;1.25;1.10;;;;;;;;;;5118125;28;20244;-64
2022/08/13 15:53:19;;;;;;;1.75;1.30;;;;;;;;;;5118011;28;20216;-62
2022/08/13 15:55:48;;;;;;;2.50;1.50;;;;;;;;;;5117990;28;20786;-62
2022/08/13 15:58:26;;;;;;;1.98;1.40;;;;;;;;;;5122695;28;20207;-62